sensor_id;sensor_type;location;lat;lon;timestamp;pressure;altitude;pressure_sealevel;temperature;humidity
26487;BME280;14425;56.136;40.360;2023-05-09T00:00:28;101072.56;;;9.15;37.85
26487;BME280;14425;56.136;40.360;2023-05-09T00:02:54;101076.34;;;8.94;38.33
26487;BME280;14425;56.136;40.360;2023-05-09T00:05:20;101073.16;;;8.84;38.44
26487;BME280;14425;56.136;40.360;2023-05-09T00:07:48;101079.69;;;8.79;38.57
26487;BME280;14425;56.136;40.360;2023-05-09T00:10:14;101074.31;;;8.63;38.54
26487;BME280;14425;56.136;40.360;2023-05-09T00:12:40;101074.44;;;8.78;38.65
26487;BME280;14425;56.136;40.360;2023-05-09T00:15:08;101079.88;;;8.96;38.71
26487;BME280;14425;56.136;40.360;2023-05-09T00:17:34;101077.81;;;8.77;38.58
26487;BME280;14425;56.136;40.360;2023-05-09T00:20:06;101078.16;;;8.56;38.98
26487;BME280;14425;56.136;40.360;2023-05-09T00:22:35;101077.66;;;8.48;39.23
26487;BME280;14425;56.136;40.360;2023-05-09T00:25:00;101074.41;;;8.64;39.40
26487;BME280;14425;56.136;40.360;2023-05-09T00:27:26;101074.34;;;8.90;38.63
26487;BME280;14425;56.136;40.360;2023-05-09T00:29:55;101071.75;;;9.03;38.28
26487;BME280;14425;56.136;40.360;2023-05-09T00:32:20;101076.91;;;8.90;39.01
26487;BME280;14425;56.136;40.360;2023-05-09T00:34:46;101085.22;;;8.72;38.28
26487;BME280;14425;56.136;40.360;2023-05-09T00:37:11;101075.72;;;8.84;38.89
26487;BME280;14425;56.136;40.360;2023-05-09T00:39:37;101078.69;;;8.91;38.96
26487;BME280;14425;56.136;40.360;2023-05-09T00:42:02;101071.75;;;9.16;38.09
26487;BME280;14425;56.136;40.360;2023-05-09T00:44:28;101073.25;;;9.13;37.81
26487;BME280;14425;56.136;40.360;2023-05-09T00:46:53;101076.41;;;8.55;39.52
26487;BME280;14425;56.136;40.360;2023-05-09T00:49:19;101076.44;;;8.82;38.90
26487;BME280;14425;56.136;40.360;2023-05-09T00:51:45;101082.25;;;9.06;38.17
26487;BME280;14425;56.136;40.360;2023-05-09T00:54:11;101075.72;;;9.11;38.18
26487;BME280;14425;56.136;40.360;2023-05-09T00:56:38;101074.06;;;9.12;38.00
26487;BME280;14425;56.136;40.360;2023-05-09T00:59:03;101075.13;;;9.15;37.68
26487;BME280;14425;56.136;40.360;2023-05-09T01:01:30;101072.97;;;9.21;37.46
26487;BME280;14425;56.136;40.360;2023-05-09T01:03:56;101085.44;;;9.02;38.01
26487;BME280;14425;56.136;40.360;2023-05-09T01:06:35;101084.94;;;8.81;38.68
26487;BME280;14425;56.136;40.360;2023-05-09T01:09:18;101087.09;;;8.75;38.97
26487;BME280;14425;56.136;40.360;2023-05-09T01:12:00;101078.59;;;8.89;38.36
26487;BME280;14425;56.136;40.360;2023-05-09T01:19:53;101078.28;;;8.71;38.43
26487;BME280;14425;56.136;40.360;2023-05-09T01:22:27;101086.94;;;8.46;38.84
26487;BME280;14425;56.136;40.360;2023-05-09T01:28:21;101084.09;;;8.30;40.34
26487;BME280;14425;56.136;40.360;2023-05-09T01:30:50;101083.59;;;8.22;40.48
26487;BME280;14425;56.136;40.360;2023-05-09T01:33:19;101079.16;;;8.33;40.34
26487;BME280;14425;56.136;40.360;2023-05-09T01:35:50;101083.75;;;8.37;40.77
26487;BME280;14425;56.136;40.360;2023-05-09T01:38:21;101080.56;;;8.41;39.23
26487;BME280;14425;56.136;40.360;2023-05-09T01:40:51;101078.66;;;8.25;39.35
26487;BME280;14425;56.136;40.360;2023-05-09T01:43:18;101085.63;;;8.65;39.34
26487;BME280;14425;56.136;40.360;2023-05-09T01:45:44;101074.53;;;8.66;38.62
26487;BME280;14425;56.136;40.360;2023-05-09T01:48:10;101080.66;;;8.68;38.85
26487;BME280;14425;56.136;40.360;2023-05-09T01:50:38;101078.56;;;8.62;39.06
26487;BME280;14425;56.136;40.360;2023-05-09T01:53:05;101082.34;;;8.67;39.13
26487;BME280;14425;56.136;40.360;2023-05-09T01:55:33;101088.06;;;8.50;39.55
26487;BME280;14425;56.136;40.360;2023-05-09T01:58:00;101085.19;;;8.45;40.04
26487;BME280;14425;56.136;40.360;2023-05-09T02:00:27;101085.69;;;8.28;41.16
26487;BME280;14425;56.136;40.360;2023-05-09T02:02:54;101080.25;;;8.48;39.98
26487;BME280;14425;56.136;40.360;2023-05-09T02:05:24;101081.94;;;8.61;39.12
26487;BME280;14425;56.136;40.360;2023-05-09T02:07:52;101079.66;;;8.53;39.50
26487;BME280;14425;56.136;40.360;2023-05-09T02:10:19;101096.13;;;8.43;39.62
26487;BME280;14425;56.136;40.360;2023-05-09T02:12:45;101095.88;;;8.40;39.62
26487;BME280;14425;56.136;40.360;2023-05-09T02:15:11;101094.53;;;8.45;39.46
26487;BME280;14425;56.136;40.360;2023-05-09T02:17:37;101095.00;;;8.39;38.98
26487;BME280;14425;56.136;40.360;2023-05-09T02:20:03;101092.78;;;8.44;39.69
26487;BME280;14425;56.136;40.360;2023-05-09T02:22:29;101095.19;;;8.54;39.61
26487;BME280;14425;56.136;40.360;2023-05-09T02:24:55;101088.72;;;8.47;39.28
26487;BME280;14425;56.136;40.360;2023-05-09T02:27:21;101099.13;;;8.49;39.39
26487;BME280;14425;56.136;40.360;2023-05-09T02:29:49;101095.56;;;8.47;40.06
26487;BME280;14425;56.136;40.360;2023-05-09T02:32:22;101099.03;;;8.47;39.43
26487;BME280;14425;56.136;40.360;2023-05-09T02:34:50;101087.16;;;8.63;39.26
26487;BME280;14425;56.136;40.360;2023-05-09T02:37:17;101100.09;;;8.51;39.04
26487;BME280;14425;56.136;40.360;2023-05-09T02:39:43;101099.91;;;8.48;39.07
26487;BME280;14425;56.136;40.360;2023-05-09T02:42:10;101108.81;;;8.53;39.23
26487;BME280;14425;56.136;40.360;2023-05-09T02:44:36;101099.66;;;8.57;39.63
26487;BME280;14425;56.136;40.360;2023-05-09T02:47:04;101103.03;;;8.69;39.00
26487;BME280;14425;56.136;40.360;2023-05-09T02:49:30;101102.41;;;8.73;39.75
26487;BME280;14425;56.136;40.360;2023-05-09T02:51:55;101096.72;;;8.91;38.66
26487;BME280;14425;56.136;40.360;2023-05-09T02:54:21;101094.00;;;8.62;39.73
26487;BME280;14425;56.136;40.360;2023-05-09T02:56:47;101095.41;;;8.71;39.37
26487;BME280;14425;56.136;40.360;2023-05-09T02:59:12;101092.72;;;8.69;39.61
26487;BME280;14425;56.136;40.360;2023-05-09T03:01:38;101099.78;;;8.85;38.67
26487;BME280;14425;56.136;40.360;2023-05-09T03:04:04;101098.41;;;8.90;39.01
26487;BME280;14425;56.136;40.360;2023-05-09T03:06:29;101098.97;;;8.99;39.17
26487;BME280;14425;56.136;40.360;2023-05-09T03:08:55;101096.72;;;9.17;38.13
26487;BME280;14425;56.136;40.360;2023-05-09T03:11:21;101105.22;;;9.03;37.76
26487;BME280;14425;56.136;40.360;2023-05-09T03:13:47;101096.81;;;9.19;38.41
26487;BME280;14425;56.136;40.360;2023-05-09T03:16:13;101101.84;;;9.31;38.27
26487;BME280;14425;56.136;40.360;2023-05-09T03:18:39;101115.81;;;9.07;38.11
26487;BME280;14425;56.136;40.360;2023-05-09T03:21:05;101109.78;;;9.20;37.65
26487;BME280;14425;56.136;40.360;2023-05-09T03:23:31;101109.97;;;9.37;37.92
26487;BME280;14425;56.136;40.360;2023-05-09T03:25:56;101109.56;;;9.44;37.58
26487;BME280;14425;56.136;40.360;2023-05-09T03:28:22;101106.03;;;9.29;37.72
26487;BME280;14425;56.136;40.360;2023-05-09T03:30:48;101111.66;;;9.36;37.56
26487;BME280;14425;56.136;40.360;2023-05-09T03:33:14;101110.97;;;9.25;37.52
26487;BME280;14425;56.136;40.360;2023-05-09T03:35:40;101117.78;;;9.38;37.12
26487;BME280;14425;56.136;40.360;2023-05-09T03:38:05;101106.19;;;9.45;37.42
26487;BME280;14425;56.136;40.360;2023-05-09T03:40:31;101111.44;;;9.60;36.91
26487;BME280;14425;56.136;40.360;2023-05-09T03:42:56;101113.09;;;9.46;37.35
26487;BME280;14425;56.136;40.360;2023-05-09T03:45:22;101112.13;;;9.44;37.91
26487;BME280;14425;56.136;40.360;2023-05-09T03:47:47;101116.88;;;9.38;37.68
26487;BME280;14425;56.136;40.360;2023-05-09T03:50:13;101111.75;;;9.24;38.12
26487;BME280;14425;56.136;40.360;2023-05-09T03:52:38;101123.34;;;9.18;37.88
26487;BME280;14425;56.136;40.360;2023-05-09T03:55:04;101116.88;;;9.65;37.46
26487;BME280;14425;56.136;40.360;2023-05-09T03:57:31;101116.94;;;9.66;37.72
26487;BME280;14425;56.136;40.360;2023-05-09T03:59:57;101114.16;;;9.76;37.63
26487;BME280;14425;56.136;40.360;2023-05-09T04:02:22;101114.41;;;9.94;37.44
26487;BME280;14425;56.136;40.360;2023-05-09T04:04:48;101115.44;;;10.11;36.65
26487;BME280;14425;56.136;40.360;2023-05-09T04:07:14;101119.53;;;10.08;37.07
26487;BME280;14425;56.136;40.360;2023-05-09T04:09:40;101116.41;;;10.13;36.70
26487;BME280;14425;56.136;40.360;2023-05-09T04:12:07;101118.44;;;10.32;36.80
26487;BME280;14425;56.136;40.360;2023-05-09T04:14:33;101112.84;;;10.40;36.82
26487;BME280;14425;56.136;40.360;2023-05-09T04:16:58;101118.72;;;10.37;37.02
26487;BME280;14425;56.136;40.360;2023-05-09T04:19:24;101121.22;;;10.22;36.79
26487;BME280;14425;56.136;40.360;2023-05-09T04:21:50;101117.38;;;10.15;36.96
26487;BME280;14425;56.136;40.360;2023-05-09T04:24:15;101127.78;;;10.17;37.17
26487;BME280;14425;56.136;40.360;2023-05-09T04:26:41;101119.13;;;10.30;36.89
26487;BME280;14425;56.136;40.360;2023-05-09T04:29:06;101128.06;;;10.50;36.55
26487;BME280;14425;56.136;40.360;2023-05-09T04:31:32;101125.78;;;10.26;37.95
26487;BME280;14425;56.136;40.360;2023-05-09T04:33:58;101123.88;;;10.37;37.34
26487;BME280;14425;56.136;40.360;2023-05-09T04:36:23;101125.69;;;10.25;37.71
26487;BME280;14425;56.136;40.360;2023-05-09T04:38:49;101125.97;;;10.29;37.84
26487;BME280;14425;56.136;40.360;2023-05-09T04:41:14;101128.88;;;10.49;37.17
26487;BME280;14425;56.136;40.360;2023-05-09T04:43:40;101126.06;;;10.59;37.20
26487;BME280;14425;56.136;40.360;2023-05-09T04:46:06;101125.69;;;10.53;37.12
26487;BME280;14425;56.136;40.360;2023-05-09T04:48:33;101130.66;;;10.65;37.42
26487;BME280;14425;56.136;40.360;2023-05-09T04:50:59;101121.97;;;10.78;37.74
26487;BME280;14425;56.136;40.360;2023-05-09T04:53:25;101120.34;;;10.95;37.59
26487;BME280;14425;56.136;40.360;2023-05-09T04:55:52;101119.59;;;11.12;37.27
26487;BME280;14425;56.136;40.360;2023-05-09T04:58:18;101130.47;;;11.06;36.76
26487;BME280;14425;56.136;40.360;2023-05-09T05:00:44;101131.47;;;10.79;37.19
26487;BME280;14425;56.136;40.360;2023-05-09T05:03:11;101128.47;;;11.01;37.28
26487;BME280;14425;56.136;40.360;2023-05-09T05:05:37;101122.38;;;11.15;36.97
26487;BME280;14425;56.136;40.360;2023-05-09T05:08:02;101122.38;;;11.15;36.85
26487;BME280;14425;56.136;40.360;2023-05-09T05:10:28;101123.31;;;11.32;36.06
26487;BME280;14425;56.136;40.360;2023-05-09T05:12:54;101125.75;;;11.60;35.65
26487;BME280;14425;56.136;40.360;2023-05-09T05:15:20;101116.13;;;11.58;36.68
26487;BME280;14425;56.136;40.360;2023-05-09T05:17:46;101115.66;;;11.81;36.38
26487;BME280;14425;56.136;40.360;2023-05-09T05:20:12;101124.72;;;11.42;37.84
26487;BME280;14425;56.136;40.360;2023-05-09T05:22:37;101119.84;;;11.32;37.67
26487;BME280;14425;56.136;40.360;2023-05-09T05:25:03;101123.56;;;11.37;38.17
26487;BME280;14425;56.136;40.360;2023-05-09T05:27:30;101136.09;;;10.54;38.69
26487;BME280;14425;56.136;40.360;2023-05-09T05:29:59;101130.38;;;10.17;39.60
26487;BME280;14425;56.136;40.360;2023-05-09T05:32:24;101133.59;;;10.56;39.04
26487;BME280;14425;56.136;40.360;2023-05-09T05:34:50;101120.94;;;11.20;38.07
26487;BME280;14425;56.136;40.360;2023-05-09T05:37:15;101125.63;;;11.74;36.98
26487;BME280;14425;56.136;40.360;2023-05-09T05:39:41;101124.13;;;11.94;35.71
26487;BME280;14425;56.136;40.360;2023-05-09T05:42:06;101123.47;;;11.98;35.65
26487;BME280;14425;56.136;40.360;2023-05-09T05:44:32;101118.47;;;12.01;35.25
26487;BME280;14425;56.136;40.360;2023-05-09T05:46:57;101111.16;;;12.43;34.69
26487;BME280;14425;56.136;40.360;2023-05-09T05:49:23;101116.63;;;12.66;34.47
26487;BME280;14425;56.136;40.360;2023-05-09T05:51:49;101106.31;;;12.84;34.04
26487;BME280;14425;56.136;40.360;2023-05-09T05:54:15;101101.66;;;12.94;34.23
26487;BME280;14425;56.136;40.360;2023-05-09T05:56:41;101102.50;;;13.11;32.74
26487;BME280;14425;56.136;40.360;2023-05-09T05:59:06;101104.66;;;13.58;31.73
26487;BME280;14425;56.136;40.360;2023-05-09T06:01:32;101104.09;;;13.63;31.82
26487;BME280;14425;56.136;40.360;2023-05-09T06:03:57;101097.06;;;13.43;31.99
26487;BME280;14425;56.136;40.360;2023-05-09T06:06:23;101102.47;;;13.47;31.43
26487;BME280;14425;56.136;40.360;2023-05-09T06:08:50;101091.06;;;13.08;31.46
26487;BME280;14425;56.136;40.360;2023-05-09T06:11:16;101102.19;;;13.23;31.94
26487;BME280;14425;56.136;40.360;2023-05-09T06:13:43;101097.50;;;13.52;32.06
26487;BME280;14425;56.136;40.360;2023-05-09T06:16:09;101095.81;;;13.53;31.33
26487;BME280;14425;56.136;40.360;2023-05-09T06:18:35;101095.22;;;13.58;31.06
26487;BME280;14425;56.136;40.360;2023-05-09T06:21:02;101092.72;;;13.99;31.34
26487;BME280;14425;56.136;40.360;2023-05-09T06:23:28;101097.19;;;14.22;30.92
26487;BME280;14425;56.136;40.360;2023-05-09T06:25:54;101092.94;;;14.23;31.20
26487;BME280;14425;56.136;40.360;2023-05-09T06:28:19;101087.66;;;14.21;29.80
26487;BME280;14425;56.136;40.360;2023-05-09T06:30:45;101083.69;;;14.51;30.77
26487;BME280;14425;56.136;40.360;2023-05-09T06:33:10;101087.53;;;13.99;30.47
26487;BME280;14425;56.136;40.360;2023-05-09T06:35:36;101088.28;;;14.76;30.89
26487;BME280;14425;56.136;40.360;2023-05-09T06:38:01;101080.66;;;15.02;28.38
26487;BME280;14425;56.136;40.360;2023-05-09T06:40:27;101086.47;;;15.40;28.24
26487;BME280;14425;56.136;40.360;2023-05-09T06:42:52;101090.34;;;15.06;28.18
26487;BME280;14425;56.136;40.360;2023-05-09T06:45:18;101073.56;;;14.76;27.83
26487;BME280;14425;56.136;40.360;2023-05-09T06:47:43;101076.59;;;14.87;28.53
26487;BME280;14425;56.136;40.360;2023-05-09T06:50:09;101077.50;;;14.88;28.19
26487;BME280;14425;56.136;40.360;2023-05-09T06:52:35;101069.59;;;15.75;27.19
26487;BME280;14425;56.136;40.360;2023-05-09T06:55:01;101059.19;;;16.48;27.35
26487;BME280;14425;56.136;40.360;2023-05-09T06:57:31;101061.00;;;15.76;27.38
26487;BME280;14425;56.136;40.360;2023-05-09T06:59:57;101062.06;;;15.81;28.26
26487;BME280;14425;56.136;40.360;2023-05-09T07:02:22;101070.31;;;14.20;30.64
26487;BME280;14425;56.136;40.360;2023-05-09T07:04:47;101072.75;;;13.59;31.46
26487;BME280;14425;56.136;40.360;2023-05-09T07:07:13;101062.50;;;13.24;30.85
26487;BME280;14425;56.136;40.360;2023-05-09T07:09:38;101067.84;;;13.09;31.06
26487;BME280;14425;56.136;40.360;2023-05-09T07:12:04;101062.66;;;13.84;30.89
26487;BME280;14425;56.136;40.360;2023-05-09T07:14:30;101060.78;;;14.19;30.22
26487;BME280;14425;56.136;40.360;2023-05-09T07:16:55;101057.88;;;14.54;30.41
26487;BME280;14425;56.136;40.360;2023-05-09T07:19:21;101058.47;;;14.47;29.94
26487;BME280;14425;56.136;40.360;2023-05-09T07:21:46;101054.63;;;15.45;28.82
26487;BME280;14425;56.136;40.360;2023-05-09T07:24:12;101050.13;;;16.36;28.10
26487;BME280;14425;56.136;40.360;2023-05-09T07:26:37;101041.47;;;16.89;27.46
26487;BME280;14425;56.136;40.360;2023-05-09T07:29:03;101045.41;;;17.05;26.67
26487;BME280;14425;56.136;40.360;2023-05-09T07:31:29;101043.72;;;17.64;26.50
26487;BME280;14425;56.136;40.360;2023-05-09T07:33:54;101038.56;;;16.81;27.21
26487;BME280;14425;56.136;40.360;2023-05-09T07:36:20;101042.31;;;15.86;28.12
26487;BME280;14425;56.136;40.360;2023-05-09T07:38:45;101029.84;;;17.06;26.72
26487;BME280;14425;56.136;40.360;2023-05-09T07:41:17;101033.84;;;17.52;26.52
26487;BME280;14425;56.136;40.360;2023-05-09T07:43:42;101027.16;;;17.92;25.40
26487;BME280;14425;56.136;40.360;2023-05-09T07:46:08;101018.81;;;18.06;25.25
26487;BME280;14425;56.136;40.360;2023-05-09T07:48:34;101018.91;;;17.47;26.51
26487;BME280;14425;56.136;40.360;2023-05-09T07:50:59;101013.69;;;18.09;26.07
26487;BME280;14425;56.136;40.360;2023-05-09T07:53:25;101013.03;;;19.26;24.96
26487;BME280;14425;56.136;40.360;2023-05-09T07:55:51;101010.72;;;19.00;25.44
26487;BME280;14425;56.136;40.360;2023-05-09T07:58:17;101015.28;;;17.42;26.29
26487;BME280;14425;56.136;40.360;2023-05-09T08:00:42;101014.28;;;16.55;27.82
26487;BME280;14425;56.136;40.360;2023-05-09T08:03:08;101008.34;;;16.33;27.77
26487;BME280;14425;56.136;40.360;2023-05-09T08:05:33;101016.88;;;16.03;28.56
26487;BME280;14425;56.136;40.360;2023-05-09T08:07:59;101018.94;;;15.41;27.98
26487;BME280;14425;56.136;40.360;2023-05-09T08:10:24;101016.22;;;15.38;28.36
26487;BME280;14425;56.136;40.360;2023-05-09T08:12:52;101008.84;;;15.49;28.69
26487;BME280;14425;56.136;40.360;2023-05-09T08:15:18;101013.31;;;15.30;28.68
26487;BME280;14425;56.136;40.360;2023-05-09T08:17:44;101008.91;;;15.28;28.70
26487;BME280;14425;56.136;40.360;2023-05-09T08:20:10;101003.06;;;15.80;27.71
26487;BME280;14425;56.136;40.360;2023-05-09T08:22:38;100993.34;;;17.06;26.41
26487;BME280;14425;56.136;40.360;2023-05-09T08:25:05;100991.47;;;16.75;26.47
26487;BME280;14425;56.136;40.360;2023-05-09T08:27:31;100997.41;;;18.54;25.62
26487;BME280;14425;56.136;40.360;2023-05-09T08:29:56;100990.47;;;18.90;25.25
26487;BME280;14425;56.136;40.360;2023-05-09T08:32:22;100984.38;;;18.56;24.55
26487;BME280;14425;56.136;40.360;2023-05-09T08:34:47;100979.78;;;17.79;24.36
26487;BME280;14425;56.136;40.360;2023-05-09T08:37:13;100981.19;;;18.66;24.53
26487;BME280;14425;56.136;40.360;2023-05-09T08:39:38;100960.50;;;20.03;23.36
26487;BME280;14425;56.136;40.360;2023-05-09T08:42:04;100956.28;;;20.65;23.89
26487;BME280;14425;56.136;40.360;2023-05-09T08:44:30;100956.41;;;21.38;22.33
26487;BME280;14425;56.136;40.360;2023-05-09T08:47:01;100957.19;;;20.15;22.29
26487;BME280;14425;56.136;40.360;2023-05-09T08:49:28;100954.91;;;19.39;23.66
26487;BME280;14425;56.136;40.360;2023-05-09T08:51:54;100967.78;;;18.89;23.47
26487;BME280;14425;56.136;40.360;2023-05-09T08:54:21;100956.94;;;18.37;22.85
26487;BME280;14425;56.136;40.360;2023-05-09T08:56:47;100961.47;;;18.09;24.46
26487;BME280;14425;56.136;40.360;2023-05-09T08:59:13;100956.63;;;17.59;24.80
26487;BME280;14425;56.136;40.360;2023-05-09T09:01:39;100954.28;;;17.68;25.41
26487;BME280;14425;56.136;40.360;2023-05-09T09:04:06;100957.50;;;17.58;26.28
26487;BME280;14425;56.136;40.360;2023-05-09T09:06:33;100952.53;;;17.67;26.06
26487;BME280;14425;56.136;40.360;2023-05-09T09:09:00;100956.91;;;17.08;26.50
26487;BME280;14425;56.136;40.360;2023-05-09T09:11:29;100949.47;;;16.91;27.30
26487;BME280;14425;56.136;40.360;2023-05-09T09:13:57;100946.09;;;16.94;26.31
26487;BME280;14425;56.136;40.360;2023-05-09T09:16:26;100945.00;;;16.33;26.98
26487;BME280;14425;56.136;40.360;2023-05-09T09:18:54;100944.59;;;17.02;26.28
26487;BME280;14425;56.136;40.360;2023-05-09T09:21:21;100943.22;;;16.86;27.05
26487;BME280;14425;56.136;40.360;2023-05-09T09:23:48;100940.81;;;16.92;26.30
26487;BME280;14425;56.136;40.360;2023-05-09T09:26:15;100936.31;;;18.13;23.85
26487;BME280;14425;56.136;40.360;2023-05-09T09:28:41;100930.41;;;18.55;23.12
26487;BME280;14425;56.136;40.360;2023-05-09T09:31:24;100925.16;;;18.55;22.96
26487;BME280;14425;56.136;40.360;2023-05-09T09:33:50;100918.81;;;20.16;24.09
26487;BME280;14425;56.136;40.360;2023-05-09T09:36:25;100908.22;;;20.08;22.40
26487;BME280;14425;56.136;40.360;2023-05-09T09:38:58;100906.00;;;19.81;21.89
26487;BME280;14425;56.136;40.360;2023-05-09T09:41:33;100904.88;;;19.68;22.90
26487;BME280;14425;56.136;40.360;2023-05-09T09:44:05;100912.50;;;19.11;23.19
26487;BME280;14425;56.136;40.360;2023-05-09T09:46:45;100919.63;;;18.42;23.90
26487;BME280;14425;56.136;40.360;2023-05-09T09:49:15;100923.72;;;18.31;24.38
26487;BME280;14425;56.136;40.360;2023-05-09T09:51:42;100923.72;;;18.30;24.85
26487;BME280;14425;56.136;40.360;2023-05-09T09:54:09;100911.97;;;18.87;24.53
26487;BME280;14425;56.136;40.360;2023-05-09T09:56:43;100916.63;;;19.00;24.89
26487;BME280;14425;56.136;40.360;2023-05-09T09:59:13;100915.38;;;18.46;25.11
26487;BME280;14425;56.136;40.360;2023-05-09T10:01:58;100912.53;;;18.00;24.87
26487;BME280;14425;56.136;40.360;2023-05-09T10:04:27;100909.16;;;17.72;25.69
26487;BME280;14425;56.136;40.360;2023-05-09T10:06:58;100906.69;;;17.13;25.20
26487;BME280;14425;56.136;40.360;2023-05-09T10:09:26;100907.19;;;17.30;25.96
26487;BME280;14425;56.136;40.360;2023-05-09T10:11:53;100904.69;;;17.05;24.29
26487;BME280;14425;56.136;40.360;2023-05-09T10:14:24;100913.06;;;16.66;26.15
26487;BME280;14425;56.136;40.360;2023-05-09T10:16:54;100901.31;;;17.07;26.20
26487;BME280;14425;56.136;40.360;2023-05-09T10:19:21;100903.19;;;17.45;25.56
26487;BME280;14425;56.136;40.360;2023-05-09T10:24:28;100909.38;;;17.16;27.11
26487;BME280;14425;56.136;40.360;2023-05-09T10:27:04;100898.53;;;18.33;24.50
26487;BME280;14425;56.136;40.360;2023-05-09T10:29:35;100891.84;;;19.25;23.32
26487;BME280;14425;56.136;40.360;2023-05-09T10:32:11;100887.06;;;19.96;23.33
26487;BME280;14425;56.136;40.360;2023-05-09T10:34:41;100885.47;;;20.05;23.11
26487;BME280;14425;56.136;40.360;2023-05-09T10:37:07;100876.09;;;20.78;23.17
26487;BME280;14425;56.136;40.360;2023-05-09T10:39:35;100877.19;;;19.79;19.96
26487;BME280;14425;56.136;40.360;2023-05-09T10:42:01;100876.06;;;20.18;20.00
26487;BME280;14425;56.136;40.360;2023-05-09T10:44:28;100876.81;;;20.09;20.02
26487;BME280;14425;56.136;40.360;2023-05-09T10:46:54;100868.97;;;21.42;21.34
26487;BME280;14425;56.136;40.360;2023-05-09T10:49:20;100861.38;;;22.95;20.07
26487;BME280;14425;56.136;40.360;2023-05-09T10:51:49;100857.81;;;22.82;19.88
26487;BME280;14425;56.136;40.360;2023-05-09T10:54:29;100854.53;;;23.58;19.24
26487;BME280;14425;56.136;40.360;2023-05-09T10:56:58;100855.03;;;22.48;19.55
26487;BME280;14425;56.136;40.360;2023-05-09T10:59:40;100852.56;;;22.83;21.03
26487;BME280;14425;56.136;40.360;2023-05-09T11:02:15;100844.75;;;23.03;20.72
26487;BME280;14425;56.136;40.360;2023-05-09T11:04:43;100851.22;;;22.10;21.33
26487;BME280;14425;56.136;40.360;2023-05-09T11:07:39;100849.00;;;20.18;22.09
26487;BME280;14425;56.136;40.360;2023-05-09T11:10:09;100856.50;;;20.53;22.95
26487;BME280;14425;56.136;40.360;2023-05-09T11:15:20;100851.75;;;19.73;24.03
26487;BME280;14425;56.136;40.360;2023-05-09T11:17:50;100840.38;;;19.23;23.93
26487;BME280;14425;56.136;40.360;2023-05-09T11:20:32;100832.44;;;19.18;23.71
26487;BME280;14425;56.136;40.360;2023-05-09T11:22:58;100833.13;;;18.67;24.54
26487;BME280;14425;56.136;40.360;2023-05-09T11:25:25;100847.13;;;17.94;24.27
26487;BME280;14425;56.136;40.360;2023-05-09T11:27:57;100841.72;;;17.86;24.78
26487;BME280;14425;56.136;40.360;2023-05-09T11:30:33;100834.09;;;18.32;25.47
26487;BME280;14425;56.136;40.360;2023-05-09T11:32:59;100831.47;;;17.94;24.62
26487;BME280;14425;56.136;40.360;2023-05-09T11:35:25;100819.84;;;18.57;25.79
26487;BME280;14425;56.136;40.360;2023-05-09T11:37:58;100821.75;;;18.64;24.26
26487;BME280;14425;56.136;40.360;2023-05-09T11:40:25;100816.44;;;19.01;23.94
26487;BME280;14425;56.136;40.360;2023-05-09T11:42:52;100814.56;;;18.54;23.36
26487;BME280;14425;56.136;40.360;2023-05-09T11:45:19;100813.31;;;18.78;24.91
26487;BME280;14425;56.136;40.360;2023-05-09T11:47:45;100813.25;;;18.75;24.15
26487;BME280;14425;56.136;40.360;2023-05-09T11:50:13;100812.84;;;18.55;24.01
26487;BME280;14425;56.136;40.360;2023-05-09T11:52:39;100819.03;;;18.60;23.86
26487;BME280;14425;56.136;40.360;2023-05-09T11:55:12;100822.41;;;18.56;24.54
26487;BME280;14425;56.136;40.360;2023-05-09T11:57:41;100806.97;;;18.25;24.93
26487;BME280;14425;56.136;40.360;2023-05-09T12:00:07;100806.22;;;18.30;25.75
26487;BME280;14425;56.136;40.360;2023-05-09T12:02:35;100807.22;;;18.36;25.15
26487;BME280;14425;56.136;40.360;2023-05-09T12:05:15;100798.31;;;18.69;24.70
26487;BME280;14425;56.136;40.360;2023-05-09T12:07:41;100801.72;;;18.24;22.84
26487;BME280;14425;56.136;40.360;2023-05-09T12:10:09;100803.22;;;17.11;25.14
26487;BME280;14425;56.136;40.360;2023-05-09T12:12:40;100802.03;;;17.31;25.50
26487;BME280;14425;56.136;40.360;2023-05-09T12:15:07;100795.88;;;17.98;24.75
26487;BME280;14425;56.136;40.360;2023-05-09T12:17:36;100798.66;;;18.04;24.82
26487;BME280;14425;56.136;40.360;2023-05-09T12:20:02;100783.66;;;18.33;23.92
26487;BME280;14425;56.136;40.360;2023-05-09T12:22:32;100795.69;;;17.88;24.73
26487;BME280;14425;56.136;40.360;2023-05-09T12:25:00;100782.28;;;17.41;26.08
26487;BME280;14425;56.136;40.360;2023-05-09T12:27:28;100782.91;;;18.01;26.23
26487;BME280;14425;56.136;40.360;2023-05-09T12:29:54;100782.25;;;16.76;23.92
26487;BME280;14425;56.136;40.360;2023-05-09T12:32:20;100787.84;;;16.59;24.72
26487;BME280;14425;56.136;40.360;2023-05-09T12:34:46;100783.50;;;16.01;24.71
26487;BME280;14425;56.136;40.360;2023-05-09T12:37:17;100776.47;;;16.25;25.18
26487;BME280;14425;56.136;40.360;2023-05-09T12:39:45;100784.53;;;16.35;24.71
26487;BME280;14425;56.136;40.360;2023-05-09T12:42:26;100782.31;;;16.77;23.98
26487;BME280;14425;56.136;40.360;2023-05-09T12:44:56;100777.69;;;16.67;25.99
26487;BME280;14425;56.136;40.360;2023-05-09T12:47:25;100767.94;;;16.90;25.59
26487;BME280;14425;56.136;40.360;2023-05-09T12:49:55;100758.91;;;16.79;24.98
26487;BME280;14425;56.136;40.360;2023-05-09T12:52:21;100763.41;;;17.16;25.20
26487;BME280;14425;56.136;40.360;2023-05-09T12:54:47;100755.91;;;16.95;25.15
26487;BME280;14425;56.136;40.360;2023-05-09T12:57:21;100754.53;;;17.10;25.62